Time;durP1;ratioP1;P1;durP2;ratioP2;P2;SDS_P1;SDS_P2;PMS_P1;PMS_P2;Temp;Humidity;BMP_temperature;BMP_pressure;BME280_temperature;BME280_humidity;BME280_pressure;Samples;Min_cycle;Max_cycle;Signal;HPM_P1;HPM_P2
2024/02/10 00:01:39;;;;;;;15.03;13.50;;;9.10;99.90;;;;;;5049188;28;20641;-76
2024/02/10 00:04:06;;;;;;;16.60;12.90;;;9.00;99.90;;;;;;5043250;28;20951;-75
2024/02/10 00:06:36;;;;;;;14.60;13.00;;;9.10;99.90;;;;;;5047438;28;20620;-76
2024/02/10 00:09:06;;;;;;;16.20;12.43;;;9.10;99.90;;;;;;5047539;28;20633;-76
2024/02/10 00:11:33;;;;;;;18.90;13.17;;;9.10;99.90;;;;;;5049148;28;20643;-76
2024/02/10 00:14:00;;;;;;;14.20;11.97;;;9.10;99.90;;;;;;5047638;28;20981;-75
2024/02/10 00:16:28;;;;;;;14.40;12.07;;;9.10;99.90;;;;;;5048158;28;21023;-75
2024/02/10 00:18:57;;;;;;;14.67;12.10;;;9.10;99.90;;;;;;5044501;28;20671;-75
2024/02/10 00:21:24;;;;;;;17.00;12.27;;;9.10;99.90;;;;;;5049099;28;20961;-75
2024/02/10 00:23:54;;;;;;;14.10;11.50;;;9.10;99.90;;;;;;5048425;28;20696;-76
2024/02/10 00:26:21;;;;;;;13.43;11.90;;;9.10;99.90;;;;;;5048247;28;20644;-75
2024/02/10 00:28:49;;;;;;;15.00;12.40;;;9.10;99.90;;;;;;5046897;28;21467;-76
2024/02/10 00:31:16;;;;;;;13.80;12.00;;;9.10;99.90;;;;;;5048936;28;20666;-75
2024/02/10 00:33:46;;;;;;;15.07;12.10;;;9.10;99.90;;;;;;5045909;28;20677;-76
2024/02/10 00:36:13;;;;;;;14.13;12.00;;;9.10;99.90;;;;;;5048989;28;20628;-75
2024/02/10 00:38:42;;;;;;;12.63;11.27;;;9.10;99.90;;;;;;5048614;28;20676;-76
2024/02/10 00:41:11;;;;;;;13.70;11.00;;;9.10;99.90;;;;;;5043482;28;20698;-75
2024/02/10 00:43:42;;;;;;;11.13;9.90;;;9.10;99.90;;;;;;5048087;28;20728;-76
2024/02/10 00:46:09;;;;;;;10.33;9.10;;;9.10;99.90;;;;;;5047827;28;21066;-75
2024/02/10 00:48:37;;;;;;;10.97;9.10;;;9.20;99.90;;;;;;5049150;28;21019;-76
2024/02/10 00:51:05;;;;;;;10.00;8.90;;;9.10;99.90;;;;;;5047507;28;20713;-76
2024/02/10 00:53:31;;;;;;;8.30;6.87;;;9.10;99.90;;;;;;5042365;28;20687;-76
2024/02/10 00:55:58;;;;;;;9.73;8.73;;;9.10;99.90;;;;;;5038664;28;20679;-75
2024/02/10 00:58:28;;;;;;;10.13;7.37;;;9.10;99.90;;;;;;5047555;28;20657;-76
2024/02/10 01:00:56;;;;;;;9.93;8.57;;;9.00;99.90;;;;;;5047133;28;21277;-75
2024/02/10 01:03:23;;;;;;;6.50;5.87;;;9.00;99.90;;;;;;5046333;28;20626;-75
2024/02/10 01:05:51;;;;;;;8.17;7.13;;;9.00;99.90;;;;;;5047873;28;21279;-76
2024/02/10 01:08:19;;;;;;;8.90;6.97;;;8.90;99.90;;;;;;5046668;28;20661;-75
2024/02/10 01:10:47;;;;;;;7.40;6.70;;;8.90;99.90;;;;;;5047015;28;20733;-75
2024/02/10 01:13:15;;;;;;;7.20;6.40;;;8.90;99.90;;;;;;5046500;28;20816;-75
2024/02/10 01:15:44;;;;;;;9.77;7.27;;;9.00;99.90;;;;;;5046376;28;20715;-75
2024/02/10 01:18:12;;;;;;;13.17;8.27;;;8.90;99.90;;;;;;5049294;28;20648;-75
2024/02/10 01:20:39;;;;;;;9.47;8.50;;;9.00;99.90;;;;;;5046662;28;20679;-75
2024/02/10 01:23:06;;;;;;;9.87;8.80;;;9.00;99.90;;;;;;5043550;28;20625;-75
2024/02/10 01:25:33;;;;;;;10.83;7.60;;;9.00;99.90;;;;;;5046628;28;20744;-75
2024/02/10 01:28:01;;;;;;;9.13;7.70;;;9.00;99.90;;;;;;5047713;28;20638;-75
2024/02/10 01:30:27;;;;;;;10.20;8.30;;;9.00;99.90;;;;;;5048987;28;20981;-75
2024/02/10 01:32:57;;;;;;;10.57;8.40;;;9.00;99.90;;;;;;5048082;28;20636;-75
2024/02/10 01:35:24;;;;;;;8.47;7.67;;;8.90;99.90;;;;;;5049031;28;20622;-76
2024/02/10 01:37:51;;;;;;;11.03;8.50;;;8.90;99.90;;;;;;5047581;28;20660;-76
2024/02/10 01:40:18;;;;;;;10.03;8.40;;;8.90;99.90;;;;;;5041838;28;20620;-76
2024/02/10 01:42:45;;;;;;;7.93;6.80;;;8.90;99.90;;;;;;5047840;28;21014;-76
2024/02/10 01:45:13;;;;;;;8.67;7.77;;;9.00;99.90;;;;;;5049017;28;20811;-76
2024/02/10 01:47:41;;;;;;;8.83;6.77;;;8.90;99.90;;;;;;5048268;28;20641;-75
2024/02/10 01:50:10;;;;;;;9.30;7.37;;;8.90;99.90;;;;;;5048353;28;20621;-76
2024/02/10 01:52:38;;;;;;;11.90;7.77;;;8.90;99.90;;;;;;5047201;28;20959;-75
2024/02/10 01:55:06;;;;;;;9.00;7.57;;;9.00;99.90;;;;;;5048564;28;20662;-76
2024/02/10 01:57:34;;;;;;;10.10;8.10;;;9.00;99.90;;;;;;5047891;28;20638;-76
2024/02/10 02:00:01;;;;;;;8.47;7.30;;;9.10;99.90;;;;;;5048301;28;20642;-76
2024/02/10 02:02:30;;;;;;;9.77;7.57;;;9.10;99.90;;;;;;5046757;28;21047;-75
2024/02/10 02:04:58;;;;;;;8.93;8.07;;;9.20;99.90;;;;;;5041759;28;20665;-75
2024/02/10 02:07:30;;;;;;;8.90;7.60;;;9.20;99.90;;;;;;5047311;28;20736;-76
2024/02/10 02:09:58;;;;;;;11.43;8.70;;;9.30;99.90;;;;;;5048421;28;20640;-75
2024/02/10 02:12:25;;;;;;;8.00;7.20;;;9.20;99.90;;;;;;5047964;28;20728;-75
2024/02/10 02:14:54;;;;;;;9.47;8.10;;;9.20;99.90;;;;;;5048225;28;21020;-75
2024/02/10 02:17:21;;;;;;;8.93;8.03;;;9.10;99.90;;;;;;5041113;28;20629;-76
2024/02/10 02:19:49;;;;;;;9.23;8.07;;;9.10;99.90;;;;;;5047178;28;20668;-75
2024/02/10 02:22:16;;;;;;;8.70;7.80;;;9.20;99.90;;;;;;5047302;28;21181;-76
2024/02/10 02:24:47;;;;;;;11.63;8.13;;;9.20;99.90;;;;;;5046916;28;21019;-76
2024/02/10 02:27:14;;;;;;;10.37;7.87;;;9.20;99.90;;;;;;5050784;28;20624;-76
2024/02/10 02:29:41;;;;;;;10.57;8.07;;;9.20;99.90;;;;;;5052509;28;20664;-76
2024/02/10 02:32:10;;;;;;;8.73;6.43;;;9.20;99.90;;;;;;5050872;28;20633;-76
2024/02/10 02:34:38;;;;;;;7.67;6.97;;;9.20;99.90;;;;;;5051401;28;20623;-76
2024/02/10 02:37:07;;;;;;;13.60;8.93;;;9.20;99.90;;;;;;5052076;28;20621;-75
2024/02/10 02:39:35;;;;;;;9.33;7.57;;;9.20;99.90;;;;;;5052330;28;20663;-75
2024/02/10 02:42:05;;;;;;;15.30;8.87;;;9.30;99.90;;;;;;5051727;28;20706;-75
2024/02/10 02:44:32;;;;;;;12.03;8.37;;;9.40;99.90;;;;;;5046856;28;20621;-75
2024/02/10 02:47:04;;;;;;;11.60;9.33;;;9.30;99.90;;;;;;5050695;28;20624;-76
2024/02/10 02:49:32;;;;;;;11.13;10.03;;;9.20;99.90;;;;;;5052142;28;20661;-76
2024/02/10 02:51:59;;;;;;;9.80;8.80;;;9.30;99.90;;;;;;5051102;28;20987;-76
2024/02/10 02:54:25;;;;;;;11.07;8.90;;;9.20;99.90;;;;;;5051114;28;20634;-76
2024/02/10 02:56:55;;;;;;;11.30;9.40;;;9.20;99.90;;;;;;5050524;28;20638;-76
2024/02/10 02:59:25;;;;;;;12.70;9.57;;;9.20;99.90;;;;;;5050838;28;20677;-76
2024/02/10 03:01:54;;;;;;;13.00;9.23;;;9.10;99.90;;;;;;5051618;28;20632;-76
2024/02/10 03:04:23;;;;;;;12.37;9.90;;;9.00;99.90;;;;;;5051297;28;20638;-75
2024/02/10 03:06:50;;;;;;;12.20;9.20;;;9.20;99.90;;;;;;5051260;28;20690;-76
2024/02/10 03:09:18;;;;;;;10.43;9.20;;;9.10;99.90;;;;;;5051209;28;20742;-76
2024/02/10 03:11:46;;;;;;;12.27;9.63;;;9.10;99.90;;;;;;5050987;28;20984;-76
2024/02/10 03:14:13;;;;;;;12.80;9.57;;;9.10;99.90;;;;;;5050991;28;20639;-76
2024/02/10 03:16:44;;;;;;;13.03;10.00;;;9.10;99.90;;;;;;5051168;28;21180;-75
2024/02/10 03:19:11;;;;;;;11.03;9.60;;;9.00;99.90;;;;;;5050979;28;20725;-75
2024/02/10 03:21:38;;;;;;;13.30;10.10;;;9.00;99.90;;;;;;5050438;28;20628;-75
2024/02/10 03:24:06;;;;;;;13.23;10.73;;;8.90;99.90;;;;;;5045137;28;20683;-76
2024/02/10 03:26:36;;;;;;;13.00;11.20;;;8.90;99.90;;;;;;5048762;28;20660;-75
2024/02/10 03:29:04;;;;;;;12.00;10.33;;;8.90;99.90;;;;;;5051467;28;20621;-75
2024/02/10 03:31:31;;;;;;;14.40;10.33;;;8.80;99.90;;;;;;5047546;28;20654;-75
2024/02/10 03:34:03;;;;;;;10.47;9.33;;;8.80;99.90;;;;;;5049881;28;21065;-75
2024/02/10 03:36:31;;;;;;;14.03;10.27;;;8.80;99.90;;;;;;5048490;28;20645;-76
2024/02/10 03:39:03;;;;;;;12.70;10.40;;;8.80;99.90;;;;;;5050431;28;20650;-75
2024/02/10 03:41:31;;;;;;;16.17;12.30;;;8.90;99.90;;;;;;5049782;28;20681;-75
2024/02/10 03:44:00;;;;;;;13.33;10.33;;;8.80;99.90;;;;;;5045671;28;21030;-76
2024/02/10 03:46:30;;;;;;;14.90;12.03;;;8.80;99.90;;;;;;5045164;28;20954;-76
2024/02/10 03:48:59;;;;;;;37.33;12.60;;;8.80;99.90;;;;;;5045437;28;20631;-76
2024/02/10 03:51:28;;;;;;;29.40;12.00;;;8.90;99.90;;;;;;5047139;28;20740;-76
2024/02/10 03:53:57;;;;;;;17.67;12.00;;;8.90;99.90;;;;;;5037167;28;20627;-76
2024/02/10 03:56:26;;;;;;;37.87;12.27;;;8.80;99.90;;;;;;5048539;28;20632;-76
2024/02/10 03:58:54;;;;;;;33.30;12.80;;;8.90;99.90;;;;;;5049680;28;21047;-76
2024/02/10 04:01:22;;;;;;;12.67;10.60;;;9.10;99.90;;;;;;5049768;28;20642;-76
2024/02/10 04:03:49;;;;;;;20.17;12.37;;;8.90;99.90;;;;;;5049266;28;20630;-76
2024/02/10 04:06:17;;;;;;;39.13;12.17;;;8.80;99.90;;;;;;5049959;28;20632;-75
2024/02/10 04:08:46;;;;;;;32.17;11.40;;;8.80;99.90;;;;;;5049619;28;20644;-76
2024/02/10 04:11:16;;;;;;;21.60;10.40;;;8.80;99.90;;;;;;5045818;28;20689;-76
2024/02/10 04:13:44;;;;;;;33.23;11.77;;;8.80;99.90;;;;;;5049350;28;20722;-75
2024/02/10 04:16:13;;;;;;;20.97;11.80;;;8.70;99.90;;;;;;5052742;28;20684;-75
2024/02/10 04:18:41;;;;;;;26.73;10.60;;;8.70;99.90;;;;;;5051210;28;20659;-76
2024/02/10 04:21:10;;;;;;;44.80;12.20;;;8.60;99.90;;;;;;5052719;28;20642;-76
2024/02/10 04:23:39;;;;;;;19.47;12.00;;;8.50;99.90;;;;;;5051402;28;20626;-76
2024/02/10 04:26:08;;;;;;;24.60;11.53;;;8.60;99.90;;;;;;5049792;28;21023;-76
2024/02/10 04:28:35;;;;;;;20.60;10.70;;;8.60;99.90;;;;;;5049079;28;20627;-76
2024/02/10 04:31:02;;;;;;;16.17;12.07;;;8.60;99.90;;;;;;5042696;28;20724;-75
2024/02/10 04:33:29;;;;;;;29.00;10.87;;;8.60;99.90;;;;;;5048566;28;20649;-76
2024/02/10 04:35:56;;;;;;;23.80;11.83;;;8.60;99.90;;;;;;5047586;28;20642;-75
2024/02/10 04:38:23;;;;;;;11.40;9.60;;;8.50;99.90;;;;;;5046626;28;20731;-76
2024/02/10 04:40:51;;;;;;;36.63;12.50;;;8.50;99.90;;;;;;5044729;28;21203;-75
2024/02/10 04:43:19;;;;;;;35.50;12.80;;;8.50;99.90;;;;;;5043043;28;21164;-76
2024/02/10 04:45:48;;;;;;;17.07;11.93;;;8.50;99.90;;;;;;5044211;28;21192;-76
2024/02/10 04:48:18;;;;;;;47.30;13.00;;;8.50;99.90;;;;;;5049048;28;20659;-75
2024/02/10 04:50:45;;;;;;;39.90;13.40;;;8.50;99.90;;;;;;5046259;28;21217;-75
2024/02/10 04:53:12;;;;;;;44.03;14.40;;;8.50;99.90;;;;;;5046781;28;20718;-75
2024/02/10 04:55:41;;;;;;;20.80;11.77;;;8.50;99.90;;;;;;5048965;28;20974;-75
2024/02/10 04:58:08;;;;;;;70.77;14.90;;;8.60;99.90;;;;;;5047237;28;20625;-75
2024/02/10 05:00:36;;;;;;;33.83;13.10;;;8.70;99.90;;;;;;5042427;28;20679;-75
2024/02/10 05:03:03;;;;;;;47.50;14.30;;;8.70;99.90;;;;;;5045677;28;20615;-76
2024/02/10 05:05:30;;;;;;;30.03;14.27;;;8.60;99.90;;;;;;5047394;28;20623;-75
2024/02/10 05:07:58;;;;;;;24.97;12.23;;;8.60;99.90;;;;;;5044707;28;20634;-75
2024/02/10 05:10:25;;;;;;;15.97;12.43;;;8.60;99.90;;;;;;5040628;28;20643;-76
2024/02/10 05:12:55;;;;;;;21.93;12.63;;;8.60;99.90;;;;;;5047993;28;21059;-75
2024/02/10 05:15:23;;;;;;;36.23;12.77;;;8.60;99.90;;;;;;5048370;28;20631;-76
2024/02/10 05:17:52;;;;;;;27.07;13.33;;;8.60;99.90;;;;;;5046567;28;20662;-76
2024/02/10 05:20:21;;;;;;;29.23;12.97;;;8.60;99.90;;;;;;5046395;28;21066;-76
2024/02/10 05:22:48;;;;;;;19.77;14.27;;;8.60;99.90;;;;;;5046502;28;21214;-76
2024/02/10 05:25:16;;;;;;;29.10;14.30;;;8.60;99.90;;;;;;5047726;28;20636;-75
2024/02/10 05:27:44;;;;;;;33.83;14.10;;;8.60;99.90;;;;;;5047931;28;20643;-75
2024/02/10 05:30:14;;;;;;;19.37;13.97;;;8.60;99.90;;;;;;5048311;28;20632;-76
2024/02/10 05:32:44;;;;;;;26.30;14.37;;;8.50;99.90;;;;;;5047748;28;21099;-76
2024/02/10 05:35:18;;;;;;;40.33;15.00;;;8.40;99.90;;;;;;5048464;28;20631;-76
2024/02/10 05:37:48;;;;;;;37.53;14.77;;;8.30;99.90;;;;;;5046437;28;21250;-75
2024/02/10 05:40:15;;;;;;;34.03;13.80;;;8.30;99.90;;;;;;5035955;28;21251;-75
2024/02/10 05:42:44;;;;;;;20.80;14.90;;;8.30;99.90;;;;;;5039296;28;20639;-76
2024/02/10 05:45:14;;;;;;;22.10;14.30;;;8.30;99.90;;;;;;5048595;28;20638;-76
2024/02/10 05:47:41;;;;;;;23.13;14.80;;;8.30;99.90;;;;;;5044707;28;20676;-75
2024/02/10 05:50:15;;;;;;;17.47;12.63;;;8.20;99.90;;;;;;5041942;28;20632;-76
2024/02/10 05:52:43;;;;;;;14.57;11.87;;;8.20;99.90;;;;;;5046726;28;21278;-76
2024/02/10 05:55:13;;;;;;;18.40;14.40;;;8.10;99.90;;;;;;5039114;28;21279;-75
2024/02/10 05:57:40;;;;;;;19.57;13.30;;;8.20;99.90;;;;;;5044583;28;20723;-76
2024/02/10 06:00:11;;;;;;;16.63;13.27;;;8.20;99.90;;;;;;5043539;28;21013;-76
2024/02/10 06:02:39;;;;;;;19.43;13.93;;;8.40;99.90;;;;;;5043826;28;20692;-76
2024/02/10 06:05:08;;;;;;;18.77;13.77;;;8.20;99.90;;;;;;5044495;28;20628;-75
2024/02/10 06:07:35;;;;;;;17.90;13.73;;;8.00;99.90;;;;;;5047714;28;20641;-76
2024/02/10 06:10:09;;;;;;;17.90;14.17;;;8.00;99.90;;;;;;5044925;28;20719;-75
2024/02/10 06:12:39;;;;;;;19.60;14.67;;;8.00;99.90;;;;;;5047784;28;20619;-75
2024/02/10 06:15:09;;;;;;;18.73;13.37;;;8.00;99.90;;;;;;5045132;28;20624;-75
2024/02/10 06:17:38;;;;;;;19.27;14.67;;;8.00;99.90;;;;;;5047960;28;20723;-75
2024/02/10 06:20:07;;;;;;;17.20;13.67;;;7.90;99.90;;;;;;5044724;28;20666;-75
2024/02/10 06:22:34;;;;;;;19.73;13.90;;;7.90;99.90;;;;;;5044462;28;20693;-76
2024/02/10 06:25:02;;;;;;;33.47;15.30;;;7.80;99.90;;;;;;5043327;28;20634;-75
2024/02/10 06:27:34;;;;;;;20.80;14.57;;;7.80;99.90;;;;;;5047076;28;20639;-75
2024/02/10 06:30:01;;;;;;;18.43;12.00;;;7.80;99.90;;;;;;5048313;28;20642;-75
2024/02/10 06:32:27;;;;;;;17.50;12.23;;;7.80;99.90;;;;;;5045970;28;20631;-75
2024/02/10 06:34:55;;;;;;;17.80;12.93;;;7.90;99.90;;;;;;5037568;28;20709;-76
2024/02/10 06:37:25;;;;;;;22.00;13.07;;;7.90;99.90;;;;;;5041305;28;20632;-76
2024/02/10 06:39:51;;;;;;;22.03;12.43;;;7.80;99.90;;;;;;5046703;28;20675;-76
2024/02/10 06:42:18;;;;;;;25.63;12.00;;;7.90;99.90;;;;;;5046854;28;20630;-76
2024/02/10 06:44:46;;;;;;;25.50;13.03;;;7.80;99.90;;;;;;5038653;28;20639;-77
2024/02/10 06:47:13;;;;;;;23.10;13.83;;;7.70;99.90;;;;;;5047932;28;20632;-74
2024/02/10 06:49:40;;;;;;;17.50;12.70;;;7.80;99.90;;;;;;5045645;28;20628;-73
2024/02/10 06:52:08;;;;;;;21.10;13.40;;;7.80;99.90;;;;;;5047737;28;20651;-73
2024/02/10 06:54:37;;;;;;;20.40;12.43;;;7.80;99.90;;;;;;5041067;28;20648;-74
2024/02/10 06:57:04;;;;;;;24.17;14.33;;;7.80;99.90;;;;;;5045567;28;20628;-74
2024/02/10 06:59:31;;;;;;;32.33;15.70;;;7.90;99.90;;;;;;5047799;28;21009;-74
2024/02/10 07:01:59;;;;;;;25.67;13.00;;;7.80;99.90;;;;;;5040719;28;20725;-74
2024/02/10 07:04:26;;;;;;;19.77;14.07;;;7.80;99.90;;;;;;5047329;28;20622;-74
2024/02/10 07:06:54;;;;;;;27.03;14.67;;;7.80;99.90;;;;;;5044453;28;20634;-73
2024/02/10 07:09:22;;;;;;;23.50;13.73;;;7.80;99.90;;;;;;5043995;28;20651;-74
2024/02/10 07:11:49;;;;;;;18.07;12.80;;;7.90;99.90;;;;;;5046766;28;20627;-74
2024/02/10 07:14:17;;;;;;;15.90;13.30;;;7.90;99.90;;;;;;5050520;28;20639;-75
2024/02/10 07:16:43;;;;;;;15.93;11.50;;;7.70;99.90;;;;;;5050723;28;20667;-75
2024/02/10 07:19:12;;;;;;;15.47;11.23;;;7.70;99.90;;;;;;5048398;28;20827;-75
2024/02/10 07:21:39;;;;;;;14.57;11.77;;;7.60;99.90;;;;;;5046499;28;20633;-75
2024/02/10 07:24:07;;;;;;;17.33;11.37;;;7.80;99.90;;;;;;5048715;28;20733;-71
2024/02/10 07:26:34;;;;;;;15.33;13.47;;;7.70;99.90;;;;;;5045823;28;21082;-72
2024/02/10 07:29:02;;;;;;;16.07;12.50;;;7.70;99.90;;;;;;5050946;28;20729;-72
2024/02/10 07:31:29;;;;;;;14.33;12.23;;;7.80;99.90;;;;;;5048889;28;20618;-72
2024/02/10 07:33:58;;;;;;;15.50;12.80;;;7.90;99.90;;;;;;5046311;28;20638;-72
2024/02/10 07:36:34;;;;;;;17.80;13.57;;;7.90;99.90;;;;;;5050142;28;20631;-73
2024/02/10 07:39:06;;;;;;;13.43;12.00;;;7.90;99.90;;;;;;5050662;28;20689;-75
2024/02/10 07:41:33;;;;;;;16.67;13.37;;;7.80;99.90;;;;;;5050007;28;20717;-74
2024/02/10 07:44:03;;;;;;;16.60;13.63;;;7.70;99.90;;;;;;5047287;28;21097;-75
2024/02/10 07:46:34;;;;;;;22.10;14.07;;;7.80;99.90;;;;;;5050085;28;20726;-73
2024/02/10 07:49:03;;;;;;;17.70;14.97;;;7.80;99.90;;;;;;5045101;28;20638;-73
2024/02/10 07:51:31;;;;;;;17.77;13.73;;;7.80;99.90;;;;;;5049205;28;21171;-73
2024/02/10 07:53:59;;;;;;;23.13;15.60;;;7.90;99.90;;;;;;5048625;28;20630;-73
2024/02/10 07:56:28;;;;;;;29.70;19.50;;;8.00;99.90;;;;;;5047476;28;20644;-73
2024/02/10 07:58:58;;;;;;;25.70;18.90;;;8.00;99.90;;;;;;5044380;28;20633;-73
2024/02/10 08:01:26;;;;;;;23.70;17.70;;;8.20;99.90;;;;;;5047648;28;20856;-73
2024/02/10 08:03:54;;;;;;;27.10;19.07;;;8.20;99.90;;;;;;5048648;28;20734;-73
2024/02/10 08:06:26;;;;;;;26.30;18.97;;;8.20;99.90;;;;;;5043821;28;20670;-73
2024/02/10 08:08:57;;;;;;;26.20;18.40;;;8.20;99.90;;;;;;5047942;28;20658;-73
2024/02/10 08:11:24;;;;;;;26.83;19.20;;;8.30;99.90;;;;;;5047783;28;20624;-73
2024/02/10 08:13:52;;;;;;;47.90;20.53;;;8.30;99.90;;;;;;5048446;28;21203;-73
2024/02/10 08:16:19;;;;;;;25.27;19.13;;;8.30;99.90;;;;;;5049423;28;20630;-73
2024/02/10 08:18:49;;;;;;;30.03;21.30;;;8.40;99.90;;;;;;5042092;28;20720;-72
2024/02/10 08:21:17;;;;;;;33.03;21.50;;;8.40;99.90;;;;;;5042845;28;20675;-73
2024/02/10 08:23:46;;;;;;;29.60;20.27;;;8.40;99.90;;;;;;5042245;28;20625;-73
2024/02/10 08:26:17;;;;;;;35.67;20.43;;;8.50;99.90;;;;;;5044097;28;21011;-76
2024/02/10 08:28:47;;;;;;;27.47;18.70;;;8.50;99.90;;;;;;5047590;28;20666;-77
2024/02/10 08:31:18;;;;;;;26.23;18.30;;;8.60;99.90;;;;;;5043447;28;20625;-74
2024/02/10 08:33:47;;;;;;;29.57;20.07;;;8.60;99.90;;;;;;5040670;28;20637;-76
2024/02/10 08:36:15;;;;;;;30.00;19.53;;;8.70;99.90;;;;;;5045938;28;20627;-73
2024/02/10 08:38:42;;;;;;;25.33;19.17;;;8.70;99.90;;;;;;5040850;28;20621;-75
2024/02/10 08:41:09;;;;;;;26.90;20.50;;;8.70;99.90;;;;;;5042694;28;20701;-73
2024/02/10 08:43:38;;;;;;;25.63;18.37;;;8.70;99.90;;;;;;5043858;28;20620;-73
2024/02/10 08:46:07;;;;;;;25.67;18.60;;;8.70;99.90;;;;;;5048804;28;20638;-74
2024/02/10 08:48:34;;;;;;;24.43;18.60;;;8.70;99.90;;;;;;5048988;28;20625;-75
2024/02/10 08:51:00;;;;;;;27.37;18.70;;;8.70;99.90;;;;;;5048568;28;20732;-76
2024/02/10 08:53:30;;;;;;;25.73;18.70;;;8.70;99.90;;;;;;5038059;28;21385;-75
2024/02/10 08:55:56;;;;;;;25.30;17.90;;;8.80;99.90;;;;;;5046077;28;20982;-74
2024/02/10 08:58:23;;;;;;;22.67;18.70;;;8.80;99.90;;;;;;5048665;28;20632;-75
2024/02/10 09:00:51;;;;;;;28.33;18.93;;;8.90;99.90;;;;;;5048501;28;20728;-75
2024/02/10 09:03:18;;;;;;;20.93;16.20;;;9.00;99.90;;;;;;5042908;28;20627;-75
2024/02/10 09:05:45;;;;;;;29.30;19.00;;;8.90;99.90;;;;;;5047948;28;20630;-75
2024/02/10 09:08:12;;;;;;;26.33;19.27;;;8.90;99.90;;;;;;5048033;28;20728;-74
2024/02/10 09:10:39;;;;;;;22.37;18.87;;;9.10;99.90;;;;;;5039500;28;20636;-73
2024/02/10 09:13:06;;;;;;;21.20;16.60;;;9.00;99.90;;;;;;5046236;28;20725;-74
2024/02/10 09:15:33;;;;;;;22.47;15.77;;;9.00;99.90;;;;;;5034765;28;20627;-73
2024/02/10 09:18:01;;;;;;;23.90;16.87;;;9.00;99.90;;;;;;5048290;28;20698;-72
2024/02/10 09:20:31;;;;;;;19.23;15.73;;;9.00;99.90;;;;;;5041574;28;20657;-82
2024/02/10 09:22:57;;;;;;;20.63;16.10;;;9.00;99.90;;;;;;5046934;28;20667;-79
2024/02/10 09:25:26;;;;;;;22.53;15.43;;;9.10;99.90;;;;;;5046421;28;20628;-73
2024/02/10 09:27:56;;;;;;;19.43;15.73;;;9.10;99.90;;;;;;5047319;28;21189;-74
2024/02/10 09:30:25;;;;;;;21.57;15.17;;;9.20;99.90;;;;;;5041363;28;20635;-72
2024/02/10 09:32:52;;;;;;;19.50;14.63;;;9.00;99.90;;;;;;5046890;28;20980;-72
2024/02/10 09:35:24;;;;;;;19.67;16.53;;;9.00;99.90;;;;;;5045644;28;21165;-71
2024/02/10 09:37:51;;;;;;;24.63;17.10;;;9.10;99.90;;;;;;5045173;28;20619;-72
2024/02/10 09:40:19;;;;;;;20.40;15.57;;;9.10;99.90;;;;;;5041502;28;20660;-71
2024/02/10 09:42:53;;;;;;;23.63;17.80;;;9.10;99.90;;;;;;5038121;28;20629;-71
2024/02/10 09:45:23;;;;;;;22.03;17.37;;;9.10;99.90;;;;;;5042912;28;20658;-70
2024/02/10 09:47:51;;;;;;;23.43;16.40;;;9.00;99.90;;;;;;5039164;28;21075;-70
2024/02/10 09:50:19;;;;;;;24.10;17.10;;;9.00;99.90;;;;;;5051785;28;20620;-68
2024/02/10 09:52:47;;;;;;;30.87;18.77;;;9.10;99.90;;;;;;5041881;28;20633;-70
2024/02/10 09:55:15;;;;;;;25.80;18.67;;;9.10;99.90;;;;;;5044400;28;20630;-71
2024/02/10 09:57:46;;;;;;;26.13;17.33;;;9.10;99.90;;;;;;5049946;28;20628;-70
2024/02/10 10:00:16;;;;;;;26.10;17.60;;;9.00;99.90;;;;;;5050259;28;20815;-72
2024/02/10 10:02:49;;;;;;;24.47;17.67;;;9.00;99.90;;;;;;5053474;28;20723;-73
2024/02/10 10:05:20;;;;;;;26.90;16.50;;;9.10;99.90;;;;;;5049860;28;20680;-74
2024/02/10 10:07:49;;;;;;;25.10;15.27;;;9.10;99.90;;;;;;5052557;28;20725;-73
2024/02/10 10:10:16;;;;;;;22.60;16.47;;;9.00;99.90;;;;;;5050651;28;20656;-76
2024/02/10 10:12:43;;;;;;;20.80;16.80;;;9.00;99.90;;;;;;5042238;28;20644;-76
2024/02/10 10:15:10;;;;;;;27.37;19.00;;;9.00;99.90;;;;;;5040736;28;20663;-76
2024/02/10 10:17:37;;;;;;;21.07;16.00;;;9.10;99.90;;;;;;5047064;28;21249;-76
2024/02/10 10:20:05;;;;;;;18.90;14.83;;;9.10;99.90;;;;;;5041776;28;20653;-76
2024/02/10 10:22:35;;;;;;;26.10;18.23;;;9.10;99.90;;;;;;5046193;28;20764;-77
2024/02/10 10:25:03;;;;;;;25.60;16.80;;;9.20;99.90;;;;;;5044579;28;20642;-76
2024/02/10 10:27:30;;;;;;;24.73;16.27;;;9.20;99.90;;;;;;5046496;28;20648;-76
2024/02/10 10:29:57;;;;;;;22.63;16.57;;;9.20;99.90;;;;;;5046217;28;20656;-76
2024/02/10 10:32:27;;;;;;;20.43;17.33;;;9.20;99.90;;;;;;5046666;28;21191;-76
2024/02/10 10:34:56;;;;;;;19.53;15.20;;;9.20;99.90;;;;;;5047419;28;20677;-76
2024/02/10 10:37:24;;;;;;;20.30;15.70;;;9.20;99.90;;;;;;5047353;28;21220;-76
2024/02/10 10:39:54;;;;;;;19.33;14.27;;;9.20;99.90;;;;;;5043876;28;20629;-76
2024/02/10 10:42:25;;;;;;;19.57;12.83;;;9.30;99.90;;;;;;5047765;28;20688;-76
2024/02/10 10:44:54;;;;;;;20.67;15.07;;;9.20;99.90;;;;;;5042707;28;20688;-76
2024/02/10 10:47:22;;;;;;;21.00;13.87;;;9.20;99.90;;;;;;5049493;28;20629;-76
2024/02/10 10:49:51;;;;;;;19.23;14.13;;;9.20;99.90;;;;;;5046157;28;20646;-76
2024/02/10 10:52:20;;;;;;;19.67;13.97;;;9.30;99.90;;;;;;5047703;28;20641;-77
2024/02/10 10:54:49;;;;;;;18.00;14.17;;;9.30;99.90;;;;;;5046977;28;20717;-74
2024/02/10 10:57:21;;;;;;;18.92;14.00;;;9.40;99.90;;;;;;5050608;28;20756;-75
2024/02/10 10:59:53;;;;;;;20.37;14.07;;;9.40;99.90;;;;;;5040547;28;20568;-75
2024/02/10 11:02:22;;;;;;;17.70;14.40;;;9.30;99.90;;;;;;5051865;28;20667;-75
2024/02/10 11:04:49;;;;;;;16.80;13.40;;;9.30;99.90;;;;;;5049153;28;21063;-75
2024/02/10 11:07:17;;;;;;;24.10;15.63;;;9.40;99.90;;;;;;5049079;28;20636;-74
2024/02/10 11:09:48;;;;;;;22.30;15.50;;;9.40;99.90;;;;;;5048914;28;21064;-74
2024/02/10 11:12:16;;;;;;;19.13;15.53;;;9.40;99.90;;;;;;5051484;28;20630;-75
2024/02/10 11:14:53;;;;;;;21.10;14.50;;;9.40;99.90;;;;;;5049638;28;20750;-75
2024/02/10 11:17:20;;;;;;;17.50;14.47;;;9.40;99.90;;;;;;5045552;28;20636;-76
2024/02/10 11:20:00;;;;;;;17.07;13.50;;;9.50;99.90;;;;;;5049637;28;20656;-75
2024/02/10 11:22:34;;;;;;;17.17;13.60;;;9.50;99.90;;;;;;5045141;28;20737;-75
2024/02/10 11:25:01;;;;;;;22.23;15.70;;;9.70;99.90;;;;;;5049249;28;20657;-76
2024/02/10 11:27:31;;;;;;;18.47;15.07;;;9.70;99.90;;;;;;5050652;28;20634;-75
2024/02/10 11:29:58;;;;;;;22.10;16.10;;;9.70;99.90;;;;;;5050358;28;20630;-75
2024/02/10 11:32:26;;;;;;;21.93;14.90;;;9.70;99.90;;;;;;5049767;28;20872;-76
2024/02/10 11:34:53;;;;;;;26.80;17.40;;;9.60;99.90;;;;;;5046420;28;20624;-76
2024/02/10 11:37:21;;;;;;;21.03;16.33;;;9.70;99.90;;;;;;5044970;28;20722;-76
2024/02/10 11:39:47;;;;;;;22.20;16.70;;;9.70;99.90;;;;;;5049533;28;20652;-75
2024/02/10 11:42:16;;;;;;;22.20;17.10;;;9.80;99.90;;;;;;5045352;28;20666;-77
2024/02/10 11:44:46;;;;;;;21.40;15.93;;;9.80;99.90;;;;;;5041189;28;20635;-76
2024/02/10 11:47:13;;;;;;;21.70;17.40;;;9.90;99.90;;;;;;5045975;28;20641;-76
2024/02/10 11:49:40;;;;;;;21.33;16.47;;;10.00;99.90;;;;;;5049605;28;20644;-76
2024/02/10 11:52:08;;;;;;;21.20;17.17;;;10.00;99.90;;;;;;5046745;28;20637;-76
2024/02/10 11:54:36;;;;;;;19.40;15.47;;;10.00;99.90;;;;;;5047147;28;20622;-76
2024/02/10 11:57:04;;;;;;;19.10;16.23;;;10.10;99.90;;;;;;5047105;28;20729;-74
2024/02/10 11:59:33;;;;;;;23.13;16.97;;;10.20;99.90;;;;;;5046308;28;21065;-73
2024/02/10 12:02:02;;;;;;;23.50;18.57;;;10.20;99.90;;;;;;5049447;28;21273;-75
2024/02/10 12:04:32;;;;;;;22.00;18.20;;;10.30;99.90;;;;;;5038701;28;20674;-75
2024/02/10 12:06:59;;;;;;;20.43;16.50;;;10.20;99.90;;;;;;5049923;28;20632;-75
2024/02/10 12:09:27;;;;;;;21.67;15.33;;;10.20;99.90;;;;;;5048897;28;20684;-75
2024/02/10 12:11:58;;;;;;;18.57;13.20;;;10.20;99.90;;;;;;5047739;28;20630;-75
2024/02/10 12:14:27;;;;;;;18.80;14.27;;;10.20;99.90;;;;;;5047862;28;20640;-74
2024/02/10 12:17:00;;;;;;;12.77;11.47;;;10.30;99.90;;;;;;5047576;28;20634;-74
2024/02/10 12:19:29;;;;;;;15.67;12.70;;;10.40;99.90;;;;;;5048754;28;20632;-75
2024/02/10 12:21:57;;;;;;;14.83;10.80;;;10.40;99.90;;;;;;5047540;28;20700;-76
2024/02/10 12:24:26;;;;;;;13.33;10.87;;;10.40;99.90;;;;;;5047463;28;20977;-75
2024/02/10 12:26:54;;;;;;;14.70;12.00;;;10.40;99.90;;;;;;5048042;28;20638;-75
2024/02/10 12:29:22;;;;;;;14.67;12.07;;;10.40;99.90;;;;;;5048461;28;20627;-75
2024/02/10 12:31:50;;;;;;;15.90;12.00;;;10.40;99.90;;;;;;5049037;28;20986;-76
2024/02/10 12:34:18;;;;;;;11.73;10.53;;;10.40;99.90;;;;;;5049224;28;20627;-75
2024/02/10 12:36:46;;;;;;;20.47;13.20;;;10.40;99.90;;;;;;5048434;28;20631;-75
2024/02/10 12:39:15;;;;;;;21.03;15.70;;;10.40;99.90;;;;;;5055080;28;20719;-75
2024/02/10 12:41:43;;;;;;;14.10;12.70;;;10.50;99.90;;;;;;5048374;28;20662;-75
2024/02/10 12:44:11;;;;;;;23.33;17.60;;;10.30;99.90;;;;;;5044979;28;20623;-75